sensor_id;sensor_type;location;lat;lon;timestamp;P1;durP1;ratioP1;P2;durP2;ratioP2
42124;SDS011;27787;44.594;11.046;2023-02-15T10:02:33;42.55;;;15.95;;
42124;SDS011;27787;44.594;11.046;2023-02-15T10:26:17;49.35;;;16.88;;
42124;SDS011;27787;44.594;11.046;2023-02-15T10:32:27;56.42;;;20.50;;
42124;SDS011;27787;44.594;11.046;2023-02-15T10:35:23;53.03;;;18.73;;
42124;SDS011;27787;44.594;11.046;2023-02-15T10:38:36;50.70;;;18.43;;
42124;SDS011;27787;44.594;11.046;2023-02-15T10:50:49;57.33;;;20.13;;
42124;SDS011;27787;44.594;11.046;2023-02-15T10:59:37;59.80;;;19.77;;
42124;SDS011;27787;44.594;11.046;2023-02-15T11:13:39;58.40;;;19.98;;
42124;SDS011;27787;44.594;11.046;2023-02-15T11:16:32;62.20;;;21.70;;
42124;SDS011;27787;44.594;11.046;2023-02-15T11:19:25;63.58;;;21.40;;
42124;SDS011;27787;44.594;11.046;2023-02-15T11:22:15;69.57;;;23.55;;
42124;SDS011;27787;44.594;11.046;2023-02-15T11:25:00;62.03;;;22.20;;
42124;SDS011;27787;44.594;11.046;2023-02-15T11:27:58;70.72;;;23.15;;
42124;SDS011;27787;44.594;11.046;2023-02-15T11:30:48;62.05;;;22.52;;
42124;SDS011;27787;44.594;11.046;2023-02-15T11:33:37;71.45;;;23.65;;
42124;SDS011;27787;44.594;11.046;2023-02-15T11:36:26;71.40;;;23.88;;
42124;SDS011;27787;44.594;11.046;2023-02-15T11:39:16;71.60;;;24.77;;
42124;SDS011;27787;44.594;11.046;2023-02-15T11:44:56;59.65;;;21.20;;
42124;SDS011;27787;44.594;11.046;2023-02-15T11:47:46;70.88;;;24.27;;
42124;SDS011;27787;44.594;11.046;2023-02-15T11:50:31;62.47;;;23.80;;
42124;SDS011;27787;44.594;11.046;2023-02-15T11:53:20;67.30;;;24.08;;
42124;SDS011;27787;44.594;11.046;2023-02-15T11:56:15;59.72;;;22.48;;
42124;SDS011;27787;44.594;11.046;2023-02-15T11:59:05;68.80;;;23.83;;
42124;SDS011;27787;44.594;11.046;2023-02-15T12:01:54;64.95;;;23.15;;
42124;SDS011;27787;44.594;11.046;2023-02-15T12:04:40;64.53;;;24.90;;
42124;SDS011;27787;44.594;11.046;2023-02-15T12:07:30;72.65;;;24.48;;
42124;SDS011;27787;44.594;11.046;2023-02-15T12:10:24;75.93;;;24.92;;
42124;SDS011;27787;44.594;11.046;2023-02-15T12:13:14;70.93;;;24.67;;
42124;SDS011;27787;44.594;11.046;2023-02-15T12:16:04;65.47;;;22.70;;
42124;SDS011;27787;44.594;11.046;2023-02-15T12:18:52;59.72;;;22.02;;
42124;SDS011;27787;44.594;11.046;2023-02-15T12:21:40;70.78;;;25.00;;
42124;SDS011;27787;44.594;11.046;2023-02-15T12:24:30;69.82;;;23.67;;
42124;SDS011;27787;44.594;11.046;2023-02-15T12:27:21;67.38;;;25.17;;
42124;SDS011;27787;44.594;11.046;2023-02-15T12:33:07;74.80;;;24.60;;
42124;SDS011;27787;44.594;11.046;2023-02-15T12:36:22;75.93;;;25.95;;
42124;SDS011;27787;44.594;11.046;2023-02-15T12:45:00;65.90;;;24.08;;
42124;SDS011;27787;44.594;11.046;2023-02-15T12:47:46;69.72;;;24.77;;
42124;SDS011;27787;44.594;11.046;2023-02-15T12:50:33;77.63;;;25.60;;
42124;SDS011;27787;44.594;11.046;2023-02-15T12:56:04;65.82;;;23.75;;
42124;SDS011;27787;44.594;11.046;2023-02-15T12:59:04;70.57;;;24.48;;
42124;SDS011;27787;44.594;11.046;2023-02-15T13:01:50;71.75;;;24.27;;
42124;SDS011;27787;44.594;11.046;2023-02-15T13:04:36;63.40;;;22.98;;
42124;SDS011;27787;44.594;11.046;2023-02-15T13:07:32;76.55;;;24.00;;
42124;SDS011;27787;44.594;11.046;2023-02-15T13:16:40;62.28;;;22.13;;
42124;SDS011;27787;44.594;11.046;2023-02-15T13:25:20;63.03;;;22.67;;
42124;SDS011;27787;44.594;11.046;2023-02-15T13:28:06;63.72;;;21.52;;
42124;SDS011;27787;44.594;11.046;2023-02-15T13:30:58;71.45;;;22.38;;
42124;SDS011;27787;44.594;11.046;2023-02-15T13:33:59;67.88;;;22.08;;
42124;SDS011;27787;44.594;11.046;2023-02-15T13:46:07;66.38;;;24.20;;
42124;SDS011;27787;44.594;11.046;2023-02-15T13:49:39;64.55;;;23.15;;
42124;SDS011;27787;44.594;11.046;2023-02-15T13:52:27;70.22;;;24.17;;
42124;SDS011;27787;44.594;11.046;2023-02-15T13:55:22;65.68;;;21.20;;
42124;SDS011;27787;44.594;11.046;2023-02-15T14:01:19;65.82;;;23.58;;
42124;SDS011;27787;44.594;11.046;2023-02-15T14:04:15;61.55;;;21.10;;
42124;SDS011;27787;44.594;11.046;2023-02-15T14:07:24;65.57;;;23.30;;
42124;SDS011;27787;44.594;11.046;2023-02-15T14:16:09;68.45;;;23.50;;
42124;SDS011;27787;44.594;11.046;2023-02-15T14:18:55;68.65;;;23.55;;
42124;SDS011;27787;44.594;11.046;2023-02-15T14:22:00;65.22;;;23.25;;
42124;SDS011;27787;44.594;11.046;2023-02-15T14:31:06;67.80;;;22.35;;
42124;SDS011;27787;44.594;11.046;2023-02-15T14:33:54;61.42;;;22.20;;
42124;SDS011;27787;44.594;11.046;2023-02-15T14:36:40;65.80;;;22.35;;
42124;SDS011;27787;44.594;11.046;2023-02-15T14:45:54;62.03;;;22.08;;
42124;SDS011;27787;44.594;11.046;2023-02-15T14:48:46;65.40;;;22.15;;
42124;SDS011;27787;44.594;11.046;2023-02-15T14:59:59;58.30;;;21.88;;
42124;SDS011;27787;44.594;11.046;2023-02-15T15:02:48;69.38;;;23.48;;
42124;SDS011;27787;44.594;11.046;2023-02-15T15:05:35;68.40;;;23.48;;
42124;SDS011;27787;44.594;11.046;2023-02-15T15:08:37;73.40;;;23.67;;
42124;SDS011;27787;44.594;11.046;2023-02-15T15:29:12;60.55;;;22.25;;
42124;SDS011;27787;44.594;11.046;2023-02-15T15:31:55;66.50;;;24.50;;
42124;SDS011;27787;44.594;11.046;2023-02-15T15:35:00;66.07;;;23.35;;
42124;SDS011;27787;44.594;11.046;2023-02-15T15:48:13;64.53;;;24.45;;
42124;SDS011;27787;44.594;11.046;2023-02-15T15:51:00;66.25;;;22.15;;
42124;SDS011;27787;44.594;11.046;2023-02-15T15:53:49;66.20;;;22.63;;
42124;SDS011;27787;44.594;11.046;2023-02-15T15:56:37;71.97;;;24.00;;
42124;SDS011;27787;44.594;11.046;2023-02-15T15:59:22;65.05;;;21.80;;
42124;SDS011;27787;44.594;11.046;2023-02-15T16:02:13;73.53;;;24.08;;
42124;SDS011;27787;44.594;11.046;2023-02-15T16:05:08;67.05;;;22.95;;
42124;SDS011;27787;44.594;11.046;2023-02-15T16:07:53;67.50;;;24.73;;
42124;SDS011;27787;44.594;11.046;2023-02-15T16:10:37;71.47;;;23.63;;
42124;SDS011;27787;44.594;11.046;2023-02-15T16:13:22;67.38;;;22.60;;
42124;SDS011;27787;44.594;11.046;2023-02-15T16:16:06;67.43;;;22.70;;
42124;SDS011;27787;44.594;11.046;2023-02-15T16:18:50;71.05;;;23.80;;
42124;SDS011;27787;44.594;11.046;2023-02-15T16:21:35;64.22;;;24.38;;
42124;SDS011;27787;44.594;11.046;2023-02-15T16:33:35;72.38;;;24.27;;
42124;SDS011;27787;44.594;11.046;2023-02-15T16:36:22;69.22;;;25.00;;
42124;SDS011;27787;44.594;11.046;2023-02-15T16:39:17;73.45;;;24.75;;
42124;SDS011;27787;44.594;11.046;2023-02-15T16:42:03;68.20;;;26.20;;
42124;SDS011;27787;44.594;11.046;2023-02-15T16:44:49;72.80;;;26.65;;
42124;SDS011;27787;44.594;11.046;2023-02-15T16:47:39;76.28;;;25.73;;
42124;SDS011;27787;44.594;11.046;2023-02-15T16:50:34;77.85;;;27.42;;
42124;SDS011;27787;44.594;11.046;2023-02-15T16:53:25;68.13;;;25.02;;
42124;SDS011;27787;44.594;11.046;2023-02-15T16:56:10;81.15;;;25.63;;
42124;SDS011;27787;44.594;11.046;2023-02-15T16:58:55;80.15;;;27.20;;
42124;SDS011;27787;44.594;11.046;2023-02-15T17:01:41;72.13;;;26.55;;
42124;SDS011;27787;44.594;11.046;2023-02-15T17:04:29;96.47;;;31.00;;
42124;SDS011;27787;44.594;11.046;2023-02-15T17:07:17;83.40;;;30.38;;
42124;SDS011;27787;44.594;11.046;2023-02-15T17:10:03;84.78;;;31.33;;
42124;SDS011;27787;44.594;11.046;2023-02-15T17:18:44;78.85;;;28.13;;
42124;SDS011;27787;44.594;11.046;2023-02-15T17:21:32;82.13;;;26.88;;
42124;SDS011;27787;44.594;11.046;2023-02-15T17:24:44;78.47;;;27.10;;
42124;SDS011;27787;44.594;11.046;2023-02-15T17:27:29;84.93;;;31.08;;
42124;SDS011;27787;44.594;11.046;2023-02-15T17:30:27;81.60;;;30.10;;
42124;SDS011;27787;44.594;11.046;2023-02-15T17:33:57;79.82;;;28.80;;
42124;SDS011;27787;44.594;11.046;2023-02-15T17:36:23;83.85;;;30.70;;
42124;SDS011;27787;44.594;11.046;2023-02-15T17:39:19;77.85;;;28.50;;
42124;SDS011;27787;44.594;11.046;2023-02-15T17:42:05;79.78;;;31.55;;
42124;SDS011;27787;44.594;11.046;2023-02-15T17:44:49;78.10;;;28.08;;
42124;SDS011;27787;44.594;11.046;2023-02-15T17:47:34;81.10;;;28.25;;
42124;SDS011;27787;44.594;11.046;2023-02-15T17:50:21;79.13;;;28.20;;
42124;SDS011;27787;44.594;11.046;2023-02-15T17:53:07;72.75;;;28.23;;
42124;SDS011;27787;44.594;11.046;2023-02-15T17:55:52;75.90;;;27.73;;
42124;SDS011;27787;44.594;11.046;2023-02-15T17:58:37;77.65;;;29.27;;
42124;SDS011;27787;44.594;11.046;2023-02-15T18:01:22;80.35;;;28.75;;
42124;SDS011;27787;44.594;11.046;2023-02-15T18:04:25;78.18;;;28.30;;
42124;SDS011;27787;44.594;11.046;2023-02-15T18:07:28;71.63;;;26.48;;
42124;SDS011;27787;44.594;11.046;2023-02-15T18:10:31;76.25;;;25.88;;
42124;SDS011;27787;44.594;11.046;2023-02-15T18:13:33;76.38;;;27.25;;
42124;SDS011;27787;44.594;11.046;2023-02-15T18:16:19;83.75;;;28.88;;
42124;SDS011;27787;44.594;11.046;2023-02-15T18:19:08;75.82;;;27.85;;
42124;SDS011;27787;44.594;11.046;2023-02-15T18:21:56;80.15;;;29.27;;
42124;SDS011;27787;44.594;11.046;2023-02-15T18:24:41;75.90;;;27.50;;
42124;SDS011;27787;44.594;11.046;2023-02-15T18:27:26;88.60;;;32.05;;
42124;SDS011;27787;44.594;11.046;2023-02-15T18:30:13;90.60;;;32.00;;
42124;SDS011;27787;44.594;11.046;2023-02-15T18:32:59;81.13;;;30.67;;
42124;SDS011;27787;44.594;11.046;2023-02-15T18:35:43;85.15;;;31.38;;
42124;SDS011;27787;44.594;11.046;2023-02-15T18:38:27;79.90;;;30.13;;
42124;SDS011;27787;44.594;11.046;2023-02-15T18:41:17;87.90;;;31.73;;
42124;SDS011;27787;44.594;11.046;2023-02-15T18:44:02;90.05;;;30.17;;
42124;SDS011;27787;44.594;11.046;2023-02-15T18:46:53;78.80;;;28.10;;
42124;SDS011;27787;44.594;11.046;2023-02-15T18:49:37;82.95;;;28.70;;
42124;SDS011;27787;44.594;11.046;2023-02-15T18:52:22;76.28;;;28.65;;
42124;SDS011;27787;44.594;11.046;2023-02-15T18:55:13;91.35;;;29.58;;
42124;SDS011;27787;44.594;11.046;2023-02-15T18:57:59;85.47;;;30.48;;
42124;SDS011;27787;44.594;11.046;2023-02-15T19:00:44;91.65;;;33.10;;
42124;SDS011;27787;44.594;11.046;2023-02-15T19:03:28;93.70;;;32.47;;
42124;SDS011;27787;44.594;11.046;2023-02-15T19:06:13;88.47;;;29.88;;
42124;SDS011;27787;44.594;11.046;2023-02-15T19:08:58;87.70;;;29.95;;
42124;SDS011;27787;44.594;11.046;2023-02-15T19:11:44;86.95;;;33.28;;
42124;SDS011;27787;44.594;11.046;2023-02-15T19:14:33;100.88;;;35.42;;
42124;SDS011;27787;44.594;11.046;2023-02-15T19:17:17;116.13;;;38.25;;
42124;SDS011;27787;44.594;11.046;2023-02-15T19:20:03;104.57;;;33.80;;
42124;SDS011;27787;44.594;11.046;2023-02-15T19:22:49;90.15;;;32.75;;
42124;SDS011;27787;44.594;11.046;2023-02-15T19:28:25;85.47;;;30.55;;
42124;SDS011;27787;44.594;11.046;2023-02-15T19:31:16;78.22;;;28.75;;
42124;SDS011;27787;44.594;11.046;2023-02-15T19:34:00;81.15;;;29.00;;
42124;SDS011;27787;44.594;11.046;2023-02-15T19:36:45;88.15;;;31.92;;
42124;SDS011;27787;44.594;11.046;2023-02-15T19:39:34;84.93;;;29.45;;
42124;SDS011;27787;44.594;11.046;2023-02-15T19:42:22;90.05;;;34.13;;
42124;SDS011;27787;44.594;11.046;2023-02-15T19:45:40;84.40;;;31.00;;
42124;SDS011;27787;44.594;11.046;2023-02-15T19:48:17;83.38;;;31.08;;
42124;SDS011;27787;44.594;11.046;2023-02-15T19:51:02;77.80;;;27.93;;
42124;SDS011;27787;44.594;11.046;2023-02-15T19:53:47;74.50;;;26.70;;
42124;SDS011;27787;44.594;11.046;2023-02-15T19:56:32;85.73;;;30.33;;
42124;SDS011;27787;44.594;11.046;2023-02-15T19:59:26;83.95;;;32.30;;
42124;SDS011;27787;44.594;11.046;2023-02-15T20:02:14;81.43;;;32.28;;
42124;SDS011;27787;44.594;11.046;2023-02-15T20:05:01;89.60;;;33.15;;
42124;SDS011;27787;44.594;11.046;2023-02-15T20:07:46;78.28;;;32.05;;
42124;SDS011;27787;44.594;11.046;2023-02-15T20:10:33;81.65;;;32.30;;
42124;SDS011;27787;44.594;11.046;2023-02-15T20:13:18;87.55;;;32.10;;
42124;SDS011;27787;44.594;11.046;2023-02-15T20:16:03;91.47;;;33.97;;
42124;SDS011;27787;44.594;11.046;2023-02-15T20:18:50;97.22;;;35.42;;
42124;SDS011;27787;44.594;11.046;2023-02-15T20:21:34;103.68;;;36.72;;
42124;SDS011;27787;44.594;11.046;2023-02-15T20:24:20;94.78;;;35.22;;
42124;SDS011;27787;44.594;11.046;2023-02-15T20:27:07;92.80;;;34.10;;
42124;SDS011;27787;44.594;11.046;2023-02-15T20:29:59;78.38;;;30.45;;
42124;SDS011;27787;44.594;11.046;2023-02-15T20:32:43;90.07;;;33.28;;
42124;SDS011;27787;44.594;11.046;2023-02-15T20:35:27;100.72;;;33.95;;
42124;SDS011;27787;44.594;11.046;2023-02-15T20:38:25;94.97;;;37.92;;
42124;SDS011;27787;44.594;11.046;2023-02-15T20:41:12;92.70;;;36.67;;
42124;SDS011;27787;44.594;11.046;2023-02-15T20:44:18;98.93;;;36.97;;
42124;SDS011;27787;44.594;11.046;2023-02-15T20:47:02;108.13;;;36.38;;
42124;SDS011;27787;44.594;11.046;2023-02-15T20:49:47;98.53;;;35.55;;
42124;SDS011;27787;44.594;11.046;2023-02-15T20:52:32;98.30;;;38.58;;
42124;SDS011;27787;44.594;11.046;2023-02-15T20:55:17;97.22;;;38.22;;
42124;SDS011;27787;44.594;11.046;2023-02-15T20:58:20;96.10;;;37.40;;
42124;SDS011;27787;44.594;11.046;2023-02-15T21:01:08;98.18;;;37.50;;
42124;SDS011;27787;44.594;11.046;2023-02-15T21:03:54;105.53;;;43.20;;
42124;SDS011;27787;44.594;11.046;2023-02-15T21:06:38;108.95;;;39.28;;
42124;SDS011;27787;44.594;11.046;2023-02-15T21:09:22;94.25;;;34.92;;
42124;SDS011;27787;44.594;11.046;2023-02-15T21:12:13;88.30;;;36.17;;
42124;SDS011;27787;44.594;11.046;2023-02-15T21:14:59;86.80;;;32.72;;
42124;SDS011;27787;44.594;11.046;2023-02-15T21:17:43;89.38;;;31.02;;
42124;SDS011;27787;44.594;11.046;2023-02-15T21:20:27;87.10;;;31.70;;
42124;SDS011;27787;44.594;11.046;2023-02-15T21:23:13;77.30;;;31.05;;
42124;SDS011;27787;44.594;11.046;2023-02-15T21:26:00;91.45;;;35.92;;
42124;SDS011;27787;44.594;11.046;2023-02-15T21:28:44;86.30;;;32.63;;
42124;SDS011;27787;44.594;11.046;2023-02-15T21:31:30;90.50;;;32.42;;
42124;SDS011;27787;44.594;11.046;2023-02-15T21:34:14;78.55;;;32.05;;
42124;SDS011;27787;44.594;11.046;2023-02-15T21:37:00;81.05;;;32.03;;
42124;SDS011;27787;44.594;11.046;2023-02-15T21:39:45;92.10;;;32.28;;
42124;SDS011;27787;44.594;11.046;2023-02-15T21:42:29;89.38;;;33.67;;
42124;SDS011;27787;44.594;11.046;2023-02-15T21:45:32;76.45;;;30.10;;
42124;SDS011;27787;44.594;11.046;2023-02-15T21:48:34;73.80;;;29.73;;
42124;SDS011;27787;44.594;11.046;2023-02-15T21:51:18;86.88;;;30.13;;
42124;SDS011;27787;44.594;11.046;2023-02-15T21:54:21;70.28;;;26.30;;
42124;SDS011;27787;44.594;11.046;2023-02-15T21:57:07;75.07;;;28.30;;
42124;SDS011;27787;44.594;11.046;2023-02-15T21:59:56;75.00;;;28.15;;
42124;SDS011;27787;44.594;11.046;2023-02-15T22:02:41;71.57;;;27.13;;
42124;SDS011;27787;44.594;11.046;2023-02-15T22:08:16;79.78;;;26.65;;
42124;SDS011;27787;44.594;11.046;2023-02-15T22:11:00;79.72;;;28.98;;
42124;SDS011;27787;44.594;11.046;2023-02-15T22:13:44;70.57;;;27.08;;
42124;SDS011;27787;44.594;11.046;2023-02-15T22:16:29;74.97;;;26.90;;
42124;SDS011;27787;44.594;11.046;2023-02-15T22:19:13;66.03;;;25.75;;
42124;SDS011;27787;44.594;11.046;2023-02-15T22:21:57;65.65;;;25.73;;
42124;SDS011;27787;44.594;11.046;2023-02-15T22:24:41;57.80;;;24.10;;
42124;SDS011;27787;44.594;11.046;2023-02-15T22:27:26;66.32;;;23.73;;
42124;SDS011;27787;44.594;11.046;2023-02-15T22:33:04;80.97;;;27.40;;
42124;SDS011;27787;44.594;11.046;2023-02-15T22:35:48;73.35;;;29.20;;
42124;SDS011;27787;44.594;11.046;2023-02-15T22:38:32;75.88;;;28.17;;
42124;SDS011;27787;44.594;11.046;2023-02-15T22:41:16;74.63;;;25.98;;
42124;SDS011;27787;44.594;11.046;2023-02-15T22:44:01;75.53;;;28.52;;
42124;SDS011;27787;44.594;11.046;2023-02-15T22:46:45;66.70;;;26.50;;
42124;SDS011;27787;44.594;11.046;2023-02-15T22:49:29;93.07;;;27.45;;
42124;SDS011;27787;44.594;11.046;2023-02-15T22:52:13;79.78;;;28.88;;
42124;SDS011;27787;44.594;11.046;2023-02-15T22:54:57;85.05;;;30.40;;
42124;SDS011;27787;44.594;11.046;2023-02-15T22:57:42;91.85;;;31.75;;
42124;SDS011;27787;44.594;11.046;2023-02-15T23:00:34;84.03;;;31.42;;
42124;SDS011;27787;44.594;11.046;2023-02-15T23:03:23;95.32;;;32.15;;
42124;SDS011;27787;44.594;11.046;2023-02-15T23:06:08;84.78;;;31.33;;
42124;SDS011;27787;44.594;11.046;2023-02-15T23:08:53;81.95;;;32.15;;
42124;SDS011;27787;44.594;11.046;2023-02-15T23:11:38;80.60;;;29.60;;
42124;SDS011;27787;44.594;11.046;2023-02-15T23:14:33;73.10;;;27.67;;
42124;SDS011;27787;44.594;11.046;2023-02-15T23:17:18;72.15;;;26.60;;
42124;SDS011;27787;44.594;11.046;2023-02-15T23:20:03;69.77;;;25.90;;
42124;SDS011;27787;44.594;11.046;2023-02-15T23:22:48;69.25;;;26.08;;
42124;SDS011;27787;44.594;11.046;2023-02-15T23:25:32;61.50;;;23.90;;
42124;SDS011;27787;44.594;11.046;2023-02-15T23:28:21;60.42;;;22.48;;
42124;SDS011;27787;44.594;11.046;2023-02-15T23:34:05;57.58;;;21.05;;
42124;SDS011;27787;44.594;11.046;2023-02-15T23:37:00;52.50;;;20.23;;
42124;SDS011;27787;44.594;11.046;2023-02-15T23:39:44;51.53;;;19.63;;
42124;SDS011;27787;44.594;11.046;2023-02-15T23:42:47;49.75;;;20.20;;
42124;SDS011;27787;44.594;11.046;2023-02-15T23:45:33;62.35;;;21.02;;
42124;SDS011;27787;44.594;11.046;2023-02-15T23:48:21;57.03;;;21.08;;
42124;SDS011;27787;44.594;11.046;2023-02-15T23:51:12;48.83;;;19.35;;
42124;SDS011;27787;44.594;11.046;2023-02-15T23:53:57;49.38;;;19.50;;
42124;SDS011;27787;44.594;11.046;2023-02-15T23:56:41;47.92;;;18.73;;
42124;SDS011;27787;44.594;11.046;2023-02-15T23:59:29;45.50;;;19.08;;
